createdAt,value
2018-01-17T00:02:09.262Z,83.90
2018-01-17T00:04:37.884Z,84.00
2018-01-17T00:07:06.045Z,84.00
2018-01-17T00:09:34.132Z,84.10
2018-01-17T00:12:03.662Z,84.30
2018-01-17T00:14:31.752Z,84.30
2018-01-17T00:16:59.850Z,84.40
2018-01-17T00:19:28.734Z,84.60
2018-01-17T00:21:56.826Z,84.60
2018-01-17T00:24:24.947Z,84.70
2018-01-17T00:35:53.951Z,84.70
2018-01-17T00:38:22.066Z,84.60
2018-01-17T00:40:50.274Z,84.70
2018-01-17T00:43:18.407Z,84.80
2018-01-17T00:45:46.535Z,84.80
2018-01-17T00:48:14.637Z,84.70
2018-01-17T00:50:44.171Z,84.70
2018-01-17T00:53:12.307Z,84.70
2018-01-17T00:55:40.441Z,84.60
2018-01-17T00:58:08.566Z,84.70
2018-01-17T01:00:36.717Z,84.60
2018-01-17T01:03:04.827Z,84.60
2018-01-17T01:05:32.927Z,84.50
2018-01-17T01:08:01.098Z,84.60
2018-01-17T01:10:29.280Z,84.50
2018-01-17T01:12:57.378Z,84.50
2018-01-17T01:15:27.355Z,84.50
2018-01-17T01:17:55.450Z,84.50
2018-01-17T01:20:23.590Z,84.50
2018-01-17T01:22:51.684Z,84.50
2018-01-17T01:25:19.783Z,84.40
2018-01-17T01:27:47.934Z,84.30
2018-01-17T01:30:16.040Z,84.40
2018-01-17T01:32:44.182Z,84.40
2018-01-17T01:35:12.283Z,84.30
2018-01-17T01:37:40.709Z,84.40
2018-01-17T01:40:08.821Z,84.30
2018-01-17T01:42:37.689Z,84.50
2018-01-17T01:45:05.790Z,84.40
2018-01-17T01:47:36.133Z,84.50
2018-01-17T01:50:04.245Z,84.50
2018-01-17T01:52:32.347Z,84.60
2018-01-17T01:55:00.491Z,84.60
2018-01-17T01:57:28.653Z,84.60
2018-01-17T01:59:56.746Z,84.60
2018-01-17T02:02:25.312Z,84.60
2018-01-17T02:04:53.473Z,84.70
2018-01-17T02:07:21.595Z,84.70
2018-01-17T02:09:49.779Z,84.70
2018-01-17T02:12:17.985Z,84.60
2018-01-17T02:14:46.610Z,84.70
2018-01-17T02:17:14.792Z,84.70
2018-01-17T02:19:43.024Z,84.60
2018-01-17T02:22:11.271Z,84.60
2018-01-17T02:24:39.506Z,84.60
2018-01-17T02:27:08.345Z,84.70
2018-01-17T02:29:36.436Z,84.70
2018-01-17T02:32:04.528Z,84.80
2018-01-17T02:34:32.626Z,84.90
2018-01-17T02:37:00.762Z,84.90
2018-01-17T02:42:54.323Z,84.70
2018-01-17T02:45:22.413Z,84.70
2018-01-17T02:47:50.537Z,84.80
2018-01-17T02:50:18.642Z,85.00
2018-01-17T02:52:46.797Z,85.00
2018-01-17T02:55:15.055Z,85.00
2018-01-17T02:57:43.308Z,85.00
2018-01-17T03:00:11.567Z,85.00
2018-01-17T03:02:39.688Z,84.90
2018-01-17T03:05:08.598Z,84.70
2018-01-17T03:07:36.696Z,84.70
2018-01-17T03:10:04.813Z,84.70
2018-01-17T03:12:32.899Z,84.60
2018-01-17T03:15:01.024Z,85.30
2018-01-17T03:17:29.108Z,84.60
2018-01-17T03:19:57.271Z,84.50
2018-01-17T03:22:25.367Z,84.40
2018-01-17T03:24:53.480Z,84.40
2018-01-17T03:27:21.580Z,84.40
2018-01-17T03:29:49.681Z,84.30
2018-01-17T03:32:17.769Z,84.30
2018-01-17T03:34:46.653Z,84.20
2018-01-17T03:37:14.753Z,84.20
2018-01-17T03:39:42.849Z,84.20
2018-01-17T03:42:10.961Z,84.10
2018-01-17T03:44:39.074Z,84.10
2018-01-17T03:47:07.857Z,84.10
2018-01-17T03:49:36.447Z,84.10
2018-01-17T03:52:04.547Z,84.10
2018-01-17T03:54:32.704Z,84.00
2018-01-17T03:57:10.059Z,84.00
2018-01-17T03:59:38.412Z,84.10
2018-01-17T04:02:06.542Z,84.10
2018-01-17T04:04:34.863Z,84.10
2018-01-17T04:07:02.946Z,84.00
2018-01-17T04:09:31.685Z,84.00
2018-01-17T04:11:59.789Z,84.00
2018-01-17T04:14:28.766Z,83.90
2018-01-17T04:16:56.916Z,83.90
2018-01-17T04:19:27.386Z,83.70
2018-01-17T04:21:55.470Z,83.70
2018-01-17T04:24:23.616Z,83.80
2018-01-17T04:26:52.570Z,83.80
2018-01-17T04:29:21.256Z,83.80
2018-01-17T04:31:49.386Z,83.80
2018-01-17T04:34:17.508Z,83.90
2018-01-17T04:36:45.596Z,83.90
2018-01-17T04:39:13.715Z,84.00
2018-01-17T04:41:45.204Z,84.10
2018-01-17T04:44:13.307Z,84.20
2018-01-17T04:46:41.971Z,84.20
2018-01-17T04:49:10.176Z,84.20
2018-01-17T04:51:38.267Z,84.20
2018-01-17T04:54:06.363Z,84.20
2018-01-17T04:56:34.504Z,84.30
2018-01-17T04:59:02.627Z,84.20
2018-01-17T05:01:30.757Z,84.20
2018-01-17T05:03:58.856Z,84.20
2018-01-17T05:06:27.774Z,84.20
2018-01-17T05:08:55.855Z,84.10
2018-01-17T05:11:24.382Z,83.90
2018-01-17T05:13:52.440Z,84.00
2018-01-17T05:16:22.189Z,84.00
2018-01-17T05:18:50.295Z,83.90
2018-01-17T05:21:18.410Z,83.90
2018-01-17T05:23:46.518Z,83.90
2018-01-17T05:26:14.644Z,83.90
2018-01-17T05:28:42.743Z,83.80
2018-01-17T05:31:10.848Z,83.70
2018-01-17T05:33:38.934Z,83.40
2018-01-17T05:36:08.425Z,83.40
2018-01-17T05:38:36.555Z,83.20
2018-01-17T05:41:05.662Z,83.40
2018-01-17T05:43:33.759Z,83.30
2018-01-17T05:46:01.846Z,83.10
2018-01-17T05:48:30.094Z,83.10
2018-01-17T05:50:58.236Z,83.00
2018-01-17T05:53:26.419Z,82.90
2018-01-17T05:55:54.565Z,82.80
2018-01-17T05:58:23.439Z,83.00
2018-01-17T06:00:53.174Z,82.90
2018-01-17T06:03:23.528Z,82.80
2018-01-17T06:05:55.847Z,82.70
2018-01-17T06:08:24.483Z,82.30
2018-01-17T06:10:52.591Z,82.30
2018-01-17T06:13:20.810Z,82.20
2018-01-17T06:15:49.556Z,82.10
2018-01-17T06:18:17.669Z,82.00
2018-01-17T06:20:46.813Z,81.80
2018-01-17T06:23:14.927Z,81.60
2018-01-17T06:25:43.321Z,81.50
2018-01-17T06:28:12.215Z,81.40
2018-01-17T06:30:42.481Z,81.30
2018-01-17T06:33:10.781Z,81.50
2018-01-17T06:35:39.438Z,81.50
2018-01-17T06:38:07.610Z,81.60
2018-01-17T06:40:35.792Z,81.40
2018-01-17T06:43:03.896Z,81.60
2018-01-17T06:45:32.779Z,82.20
2018-01-17T06:48:00.892Z,81.50
2018-01-17T06:50:29.946Z,81.40
2018-01-17T06:52:58.746Z,81.40
2018-01-17T06:55:26.818Z,81.50
2018-01-17T06:57:54.932Z,81.80
2018-01-17T07:00:23.004Z,81.80
2018-01-17T07:02:51.114Z,81.80
2018-01-17T07:05:19.354Z,81.20
2018-01-17T07:07:47.520Z,81.00
2018-01-17T07:10:15.686Z,80.70
2018-01-17T07:12:43.772Z,80.30
2018-01-17T07:15:11.863Z,79.60
2018-01-17T07:17:41.283Z,78.80
2018-01-17T07:20:09.459Z,78.80
2018-01-17T07:22:38.267Z,79.20
2018-01-17T07:25:06.812Z,79.70
2018-01-17T07:27:35.406Z,80.30
2018-01-17T07:30:03.529Z,80.80
2018-01-17T07:32:31.623Z,81.30
2018-01-17T07:35:00.295Z,81.70
2018-01-17T07:37:28.372Z,82.00
2018-01-17T07:39:56.437Z,82.10
2018-01-17T07:42:24.535Z,82.40
2018-01-17T07:44:52.627Z,82.40
2018-01-17T07:47:20.729Z,82.40
2018-01-17T07:49:48.821Z,82.50
2018-01-17T07:52:17.408Z,82.50
2018-01-17T07:54:45.494Z,82.70
2018-01-17T07:57:13.590Z,82.70
2018-01-17T07:59:41.688Z,82.70
2018-01-17T08:02:09.936Z,82.60
2018-01-17T08:04:38.049Z,82.60
2018-01-17T08:07:06.148Z,82.60
2018-01-17T08:09:34.262Z,82.60
2018-01-17T08:12:03.112Z,83.30
2018-01-17T08:14:32.170Z,82.50
2018-01-17T08:17:00.264Z,82.50
2018-01-17T08:19:28.364Z,82.50
2018-01-17T08:21:56.456Z,82.50
2018-01-17T08:24:24.544Z,82.60
2018-01-17T08:26:52.628Z,82.50
2018-01-17T08:29:20.718Z,82.50
2018-01-17T08:31:48.821Z,82.50
2018-01-17T08:34:16.911Z,82.50
2018-01-17T08:36:46.841Z,82.40
2018-01-17T08:39:14.924Z,82.30
2018-01-17T08:41:43.015Z,82.40
2018-01-17T08:44:12.402Z,82.40
2018-01-17T08:46:40.483Z,82.40
2018-01-17T08:49:08.627Z,82.20
2018-01-17T08:51:36.737Z,82.20
2018-01-17T08:54:06.247Z,82.10
2018-01-17T08:56:34.361Z,82.10
2018-01-17T08:59:03.235Z,81.80
2018-01-17T09:01:33.093Z,81.80
2018-01-17T09:04:01.283Z,81.60
2018-01-17T09:06:29.421Z,81.70
2018-01-17T09:08:57.528Z,81.70
2018-01-17T09:11:25.616Z,81.70
2018-01-17T09:13:53.730Z,81.70
2018-01-17T09:16:21.840Z,81.60
2018-01-17T09:18:51.490Z,81.60
2018-01-17T09:21:19.832Z,81.60
2018-01-17T09:23:47.928Z,81.30
2018-01-17T09:26:16.136Z,81.20
2018-01-17T09:28:44.748Z,81.40
2018-01-17T09:31:13.600Z,80.90
2018-01-17T09:33:41.688Z,80.70
2018-01-17T09:36:09.786Z,80.70
2018-01-17T09:38:38.141Z,80.20
2018-01-17T09:41:06.212Z,79.80
2018-01-17T09:43:34.326Z,79.40
2018-01-17T09:46:02.413Z,78.90
2018-01-17T09:48:30.482Z,79.00
2018-01-17T09:50:58.625Z,79.00
2018-01-17T09:53:26.704Z,79.10
2018-01-17T09:55:54.834Z,79.20
2018-01-17T09:58:22.933Z,78.70
2018-01-17T10:00:51.039Z,78.40
2018-01-17T10:03:19.119Z,78.30
2018-01-17T10:05:48.512Z,77.70
2018-01-17T10:08:16.595Z,78.00
2018-01-17T10:10:45.163Z,77.90
2018-01-17T10:13:13.247Z,77.80
2018-01-17T10:15:41.337Z,77.60
2018-01-17T10:18:09.533Z,77.60
2018-01-17T10:20:39.725Z,77.20
2018-01-17T10:23:07.825Z,77.40
2018-01-17T10:25:35.905Z,76.80
2018-01-17T10:28:04.003Z,77.00
2018-01-17T10:30:32.095Z,76.80
2018-01-17T10:33:00.197Z,76.30
2018-01-17T10:35:28.280Z,76.20
2018-01-17T10:37:56.372Z,76.50
2018-01-17T10:40:26.701Z,75.10
2018-01-17T10:42:54.793Z,75.20
2018-01-17T10:45:22.882Z,74.70
2018-01-17T10:47:50.970Z,74.20
2018-01-17T10:50:19.084Z,73.20
2018-01-17T10:52:48.776Z,73.00
2018-01-17T10:55:16.914Z,72.70
2018-01-17T10:57:45.087Z,72.80
2018-01-17T11:00:13.486Z,73.40
2018-01-17T11:02:41.588Z,72.60
2018-01-17T11:05:09.703Z,71.00
2018-01-17T11:07:38.012Z,70.00
2018-01-17T11:10:06.102Z,69.90
2018-01-17T11:12:35.692Z,70.60
2018-01-17T11:15:03.987Z,69.20
2018-01-17T11:17:33.007Z,68.90
2018-01-17T11:20:02.279Z,68.40
2018-01-17T11:22:30.396Z,68.30
2018-01-17T11:24:58.504Z,69.00
2018-01-17T11:27:26.618Z,70.10
2018-01-17T11:29:54.715Z,69.40
2018-01-17T11:32:22.865Z,69.00
2018-01-17T11:34:50.949Z,69.10
2018-01-17T11:37:20.542Z,69.50
2018-01-17T11:39:48.636Z,69.60
2018-01-17T11:42:16.733Z,70.20
2018-01-17T11:44:45.312Z,70.10
2018-01-17T11:47:13.413Z,70.20
2018-01-17T11:49:42.331Z,70.30
2018-01-17T11:52:10.497Z,70.60
2018-01-17T11:54:39.344Z,70.10
2018-01-17T11:57:07.915Z,70.10
2018-01-17T11:59:36.013Z,70.30
2018-01-17T12:02:06.450Z,70.60
2018-01-17T12:04:35.538Z,71.20
2018-01-17T12:07:03.612Z,71.80
2018-01-17T12:09:32.444Z,72.50
2018-01-17T12:12:00.577Z,72.80
2018-01-17T12:14:29.774Z,73.10
2018-01-17T12:16:57.859Z,73.70
2018-01-17T12:19:27.559Z,74.20
2018-01-17T12:21:55.630Z,75.10
2018-01-17T12:24:23.718Z,75.70
2018-01-17T12:26:55.702Z,76.20
2018-01-17T12:29:24.178Z,76.70
2018-01-17T12:31:52.266Z,77.00
2018-01-17T12:34:20.412Z,77.30
2018-01-17T12:36:48.540Z,77.30
2018-01-17T12:39:16.618Z,77.30
2018-01-17T12:41:45.326Z,77.30
2018-01-17T12:44:14.038Z,77.10
2018-01-17T12:46:42.834Z,76.60
2018-01-17T12:49:11.790Z,76.40
2018-01-17T12:51:40.358Z,75.80
2018-01-17T12:54:08.438Z,75.50
2018-01-17T12:56:39.963Z,75.50
2018-01-17T12:59:08.140Z,75.00
2018-01-17T13:01:37.093Z,74.90
2018-01-17T13:04:05.167Z,74.70
2018-01-17T13:06:33.278Z,74.60
2018-01-17T13:09:01.368Z,74.50
2018-01-17T13:11:29.462Z,74.40
2018-01-17T13:13:57.539Z,74.20
2018-01-17T13:16:26.407Z,73.40
2018-01-17T13:18:55.975Z,73.40
2018-01-17T13:21:24.077Z,73.40
2018-01-17T13:23:52.617Z,73.60
2018-01-17T13:26:22.667Z,73.80
2018-01-17T13:28:50.777Z,73.10
2018-01-17T13:31:18.845Z,73.10
2018-01-17T13:33:46.967Z,73.30
2018-01-17T13:36:15.849Z,73.70
2018-01-17T13:38:44.664Z,73.40
2018-01-17T13:41:12.848Z,73.70
2018-01-17T13:43:41.713Z,73.70
2018-01-17T13:46:09.825Z,73.20
2018-01-17T13:48:41.440Z,73.20
2018-01-17T13:51:09.521Z,73.00
2018-01-17T13:53:37.600Z,73.20
2018-01-17T13:56:05.710Z,73.50
2018-01-17T13:58:33.808Z,73.90
2018-01-17T14:01:01.892Z,74.60
2018-01-17T14:03:29.979Z,75.00
2018-01-17T14:05:58.544Z,75.70
2018-01-17T14:08:26.623Z,76.00
2018-01-17T14:10:54.731Z,75.90
2018-01-17T14:13:22.916Z,76.40
2018-01-17T14:15:51.020Z,76.50
2018-01-17T14:18:19.110Z,76.30
2018-01-17T14:20:47.195Z,76.30
2018-01-17T14:23:15.439Z,76.50
2018-01-17T14:25:44.861Z,76.40
2018-01-17T14:28:12.938Z,76.20
2018-01-17T14:30:41.511Z,75.30
2018-01-17T14:33:09.587Z,74.90
2018-01-17T14:35:37.715Z,74.40
2018-01-17T14:38:05.791Z,74.00
2018-01-17T14:40:33.897Z,73.60
2018-01-17T14:43:07.550Z,73.80
2018-01-17T14:45:35.641Z,73.60
2018-01-17T14:48:04.508Z,74.40
2018-01-17T14:50:32.589Z,74.40
2018-01-17T14:53:00.760Z,74.50
2018-01-17T14:55:28.827Z,74.70
2018-01-17T14:57:56.946Z,75.00
2018-01-17T15:00:25.026Z,74.70
2018-01-17T15:02:53.136Z,75.00
2018-01-17T15:05:21.218Z,75.30
2018-01-17T15:07:49.344Z,75.10
2018-01-17T15:10:19.043Z,75.00
2018-01-17T15:12:47.207Z,75.00
2018-01-17T15:15:15.283Z,75.00
2018-01-17T15:17:44.184Z,74.90
2018-01-17T15:20:12.288Z,74.80
2018-01-17T15:22:40.496Z,74.60
2018-01-17T15:25:10.278Z,74.80
2018-01-17T15:27:38.477Z,74.60
2018-01-17T15:30:06.564Z,74.60
2018-01-17T15:32:36.435Z,74.80
2018-01-17T15:35:05.766Z,75.10
2018-01-17T15:37:33.853Z,75.10
2018-01-17T15:40:01.957Z,75.00
2018-01-17T15:42:31.153Z,75.10
2018-01-17T15:44:59.267Z,75.10
2018-01-17T15:47:28.192Z,75.10
2018-01-17T15:49:56.302Z,74.60
2018-01-17T15:52:24.455Z,74.80
2018-01-17T15:54:52.564Z,74.50
2018-01-17T15:57:20.656Z,74.70
2018-01-17T15:59:49.343Z,74.60
2018-01-17T16:02:17.895Z,74.00
2018-01-17T16:04:47.061Z,73.90
2018-01-17T16:07:15.155Z,73.80
2018-01-17T16:09:43.276Z,74.00
2018-01-17T16:12:11.355Z,73.50
2018-01-17T16:14:40.030Z,73.10
2018-01-17T16:17:08.113Z,73.40
2018-01-17T16:19:36.200Z,73.50
2018-01-17T16:22:04.287Z,73.70
2018-01-17T16:24:33.840Z,73.50
2018-01-17T16:27:01.930Z,73.50
2018-01-17T16:29:32.582Z,72.90
2018-01-17T16:32:00.716Z,72.90
2018-01-17T16:34:28.819Z,73.10
2018-01-17T16:36:58.709Z,72.90
2018-01-17T16:39:27.587Z,72.60
2018-01-17T16:41:56.474Z,72.50
2018-01-17T16:44:24.548Z,72.40
2018-01-17T16:46:52.812Z,72.60
2018-01-17T16:49:21.032Z,73.00
2018-01-17T16:51:49.250Z,73.10
2018-01-17T16:54:17.352Z,73.40
2018-01-17T16:56:45.461Z,73.40
2018-01-17T16:59:13.567Z,73.60
2018-01-17T17:01:41.643Z,74.00
2018-01-17T17:04:09.741Z,74.50
2018-01-17T17:06:39.119Z,75.30
2018-01-17T17:09:07.232Z,76.00
2018-01-17T17:11:35.309Z,75.40
2018-01-17T17:14:03.411Z,75.50
2018-01-17T17:16:31.499Z,75.80
2018-01-17T17:18:59.605Z,75.80
2018-01-17T17:21:28.331Z,75.80
2018-01-17T17:23:56.847Z,75.70
2018-01-17T17:26:24.953Z,75.80
2018-01-17T17:28:53.056Z,75.70
2018-01-17T17:31:21.147Z,75.50
2018-01-17T17:33:49.232Z,75.70
2018-01-17T17:36:17.440Z,75.70
2018-01-17T17:38:45.556Z,75.40
2018-01-17T17:41:13.662Z,75.40
2018-01-17T17:43:41.800Z,75.30
2018-01-17T17:46:09.904Z,74.90
2018-01-17T17:48:38.185Z,74.80
2018-01-17T17:51:06.333Z,74.80
2018-01-17T17:53:34.454Z,74.60
2018-01-17T17:56:03.356Z,74.80
2018-01-17T17:58:31.454Z,74.80
2018-01-17T18:00:59.570Z,74.50
2018-01-17T18:03:27.700Z,74.30
2018-01-17T18:05:55.792Z,74.50
2018-01-17T18:08:23.882Z,74.00
2018-01-17T18:10:52.010Z,73.90
2018-01-17T18:13:20.125Z,73.90
2018-01-17T18:15:48.260Z,74.10
2018-01-17T18:18:16.361Z,74.00
2018-01-17T18:20:44.460Z,74.30
2018-01-17T18:23:12.601Z,74.00
2018-01-17T18:25:40.750Z,73.90
2018-01-17T18:28:09.021Z,73.70
2018-01-17T18:30:37.233Z,73.40
2018-01-17T18:33:05.403Z,73.80
2018-01-17T18:35:33.511Z,74.30
2018-01-17T18:38:02.405Z,75.40
2018-01-17T18:40:30.533Z,75.30
2018-01-17T18:42:58.692Z,75.70
2018-01-17T18:45:26.827Z,75.80
2018-01-17T18:47:54.977Z,76.00
2018-01-17T18:50:23.827Z,76.00
2018-01-17T18:52:51.915Z,75.90
2018-01-17T18:55:20.835Z,75.90
2018-01-17T18:57:48.949Z,75.50
2018-01-17T19:00:17.240Z,75.60
2018-01-17T19:02:45.425Z,75.60
2018-01-17T19:05:15.116Z,75.70
2018-01-17T19:07:43.887Z,75.70
2018-01-17T19:10:12.261Z,75.70
2018-01-17T19:12:41.560Z,75.70
2018-01-17T19:15:11.438Z,75.60
2018-01-17T19:17:39.566Z,75.80
2018-01-17T19:20:07.696Z,76.00
2018-01-17T19:22:35.845Z,76.40
2018-01-17T19:25:03.970Z,76.80
2018-01-17T19:27:33.934Z,77.10
2018-01-17T19:30:02.095Z,77.40
2018-01-17T19:32:30.263Z,77.80
2018-01-17T19:34:59.625Z,78.00
2018-01-17T19:37:27.787Z,78.20
2018-01-17T19:39:56.739Z,79.30
2018-01-17T19:42:27.731Z,78.70
2018-01-17T19:44:55.851Z,78.90
2018-01-17T19:47:23.971Z,79.00
2018-01-17T19:49:52.116Z,79.10
2018-01-17T19:52:23.891Z,79.00
2018-01-17T19:54:52.051Z,79.20
2018-01-17T19:57:20.251Z,79.20
2018-01-17T19:59:48.413Z,79.40
2018-01-17T20:02:19.147Z,79.70
2018-01-17T20:04:48.274Z,80.00
2018-01-17T20:07:16.456Z,79.90
2018-01-17T20:09:44.696Z,80.10
2018-01-17T20:12:12.870Z,80.30
2018-01-17T20:14:41.110Z,80.40
2018-01-17T20:17:09.291Z,80.60
2018-01-17T20:19:38.166Z,80.60
2018-01-17T20:22:06.375Z,80.50
2018-01-17T20:24:34.601Z,80.50
2018-01-17T20:27:02.785Z,80.40
2018-01-17T20:29:31.835Z,80.40
2018-01-17T20:32:00.056Z,80.40
2018-01-17T20:34:30.443Z,80.30
2018-01-17T20:36:58.619Z,80.30
2018-01-17T20:39:32.222Z,80.30
2018-01-17T20:42:00.404Z,80.40
2018-01-17T20:44:28.586Z,80.50
2018-01-17T20:46:58.248Z,80.60
2018-01-17T20:49:28.408Z,80.70
2018-01-17T20:51:57.904Z,80.80
2018-01-17T20:54:26.018Z,80.90
2018-01-17T20:56:54.225Z,80.90
2018-01-17T20:59:22.628Z,81.00
2018-01-17T21:01:51.547Z,80.90
2018-01-17T21:04:19.765Z,80.70
2018-01-17T21:06:48.104Z,80.60
2018-01-17T21:09:16.311Z,80.40
2018-01-17T21:11:44.543Z,80.40
2018-01-17T21:14:15.448Z,80.30
2018-01-17T21:16:44.739Z,80.30
2018-01-17T21:19:12.931Z,80.20
2018-01-17T21:21:41.033Z,80.10
2018-01-17T21:24:11.250Z,80.00
2018-01-17T21:26:40.273Z,80.00
2018-01-17T21:29:08.521Z,79.90
2018-01-17T21:31:36.599Z,79.80
2018-01-17T21:34:05.515Z,79.90
2018-01-17T21:36:34.442Z,79.60
2018-01-17T21:39:02.685Z,79.60
2018-01-17T21:41:30.824Z,79.70
2018-01-17T21:44:04.425Z,79.80
2018-01-17T21:46:32.603Z,79.60
2018-01-17T21:49:00.708Z,79.60
2018-01-17T21:51:28.807Z,79.60
2018-01-17T21:53:56.890Z,79.60
2018-01-17T21:56:25.019Z,79.60
2018-01-17T21:58:53.538Z,79.60
2018-01-17T22:01:21.688Z,79.60
2018-01-17T22:03:53.530Z,79.60
2018-01-17T22:06:22.234Z,79.50
2018-01-17T22:08:50.342Z,79.50
2018-01-17T22:11:18.447Z,79.50
2018-01-17T22:13:46.576Z,79.60
2018-01-17T22:16:14.696Z,79.70
2018-01-17T22:18:42.842Z,79.80
2018-01-17T22:21:11.920Z,79.90
2018-01-17T22:23:40.512Z,79.90
2018-01-17T22:26:08.641Z,79.80
2018-01-17T22:28:36.741Z,79.90
2018-01-17T22:31:04.832Z,79.90
2018-01-17T22:33:33.004Z,79.80
2018-01-17T22:36:01.163Z,79.90
2018-01-17T22:38:29.281Z,80.00
2018-01-17T22:40:57.385Z,80.00
2018-01-17T22:43:25.480Z,80.10
2018-01-17T22:45:53.589Z,80.10
2018-01-17T22:48:25.379Z,80.10
2018-01-17T22:50:53.467Z,80.10
2018-01-17T22:53:22.359Z,80.10
2018-01-17T22:55:50.747Z,80.10
2018-01-17T22:58:18.931Z,80.10
2018-01-17T23:00:47.093Z,80.20
2018-01-17T23:03:19.031Z,80.20
2018-01-17T23:05:47.128Z,80.20
2018-01-17T23:08:15.771Z,80.10
2018-01-17T23:10:43.936Z,80.10
2018-01-17T23:13:12.053Z,80.10
2018-01-17T23:15:40.945Z,80.00
2018-01-17T23:18:09.535Z,80.00
2018-01-17T23:20:37.702Z,80.00
2018-01-17T23:23:06.573Z,80.00
2018-01-17T23:25:36.226Z,79.90
2018-01-17T23:28:04.330Z,79.90
2018-01-17T23:30:32.506Z,79.80
2018-01-17T23:33:00.850Z,79.90
2018-01-17T23:35:29.016Z,80.00
2018-01-17T23:37:57.149Z,80.10
2018-01-17T23:53:20.686Z,80.00
2018-01-17T23:55:48.783Z,79.10
2018-01-17T23:58:17.662Z,80.10
